createdAt,value
2023-04-09T15:40:13.749Z,7.82
2023-04-09T15:43:20.236Z,7.82
2023-04-09T15:46:24.270Z,8.27
2023-04-09T15:49:30.465Z,8.07
2023-04-09T15:52:34.841Z,8.00
2023-04-09T15:55:42.906Z,7.35
2023-04-09T15:58:47.000Z,7.82
2023-04-09T16:01:53.922Z,8.48
2023-04-09T16:04:57.944Z,9.40
2023-04-09T16:08:04.136Z,7.93
2023-04-09T16:11:10.583Z,8.52
2023-04-09T16:14:16.645Z,8.65
2023-04-09T16:20:26.430Z,8.05
2023-04-09T16:23:30.924Z,7.90
2023-04-09T16:26:38.874Z,8.88
2023-04-09T16:29:43.036Z,8.30
2023-04-09T16:32:49.257Z,9.48
2023-04-09T16:38:59.801Z,8.95
2023-04-09T16:42:06.594Z,7.55
2023-04-09T16:45:13.297Z,8.95
2023-04-09T16:48:17.325Z,9.23
2023-04-09T16:51:23.498Z,8.40
2023-04-09T16:54:27.581Z,9.23
2023-04-09T16:57:36.021Z,8.48
2023-04-09T17:00:40.294Z,8.68
2023-04-09T17:03:46.350Z,8.75
2023-04-09T17:06:51.207Z,9.20
2023-04-09T17:09:57.368Z,9.63
2023-04-09T17:13:03.542Z,9.00
2023-04-09T17:16:11.147Z,8.38
2023-04-09T17:19:15.390Z,8.93
2023-04-09T17:22:21.610Z,8.82
2023-04-09T17:25:25.884Z,8.07
2023-04-09T17:28:34.342Z,9.98
2023-04-09T17:31:40.603Z,9.40
2023-04-09T17:34:48.955Z,9.25
2023-04-09T17:37:53.482Z,9.88
2023-04-09T17:40:59.935Z,9.27
2023-04-09T17:44:06.396Z,9.63
2023-04-09T17:47:12.967Z,8.60
2023-04-09T17:50:16.988Z,9.35
2023-04-09T17:53:23.140Z,9.32
2023-04-09T17:56:27.109Z,8.65
2023-04-09T17:59:35.908Z,9.32
2023-04-09T18:02:40.397Z,8.43
2023-04-09T18:05:46.763Z,8.75
2023-04-09T18:08:51.858Z,9.02
2023-04-09T18:12:00.229Z,7.95
2023-04-09T18:15:07.267Z,8.80
2023-04-09T18:18:13.308Z,8.35
2023-04-09T18:24:25.723Z,8.50
2023-04-09T18:27:29.672Z,10.73
2023-04-09T18:30:38.922Z,15.23
2023-04-09T18:33:43.427Z,16.02
2023-04-09T18:36:49.646Z,15.52
2023-04-09T18:39:53.632Z,14.82
2023-04-09T18:42:59.633Z,11.05
2023-04-09T18:49:11.892Z,9.98
2023-04-09T18:55:22.131Z,16.20
2023-04-09T18:58:26.803Z,21.23
2023-04-09T19:01:35.308Z,23.38
2023-04-09T19:04:41.450Z,22.92
2023-04-09T19:07:47.519Z,25.67
2023-04-09T19:13:59.211Z,22.25
2023-04-09T19:17:05.338Z,21.75
2023-04-09T19:20:13.087Z,19.42
2023-04-09T19:23:17.032Z,18.55
2023-04-09T19:26:23.669Z,20.17
2023-04-09T19:29:27.696Z,20.63
2023-04-09T19:32:35.639Z,20.67
2023-04-09T19:35:40.184Z,20.23
2023-04-09T19:38:47.834Z,20.33
2023-04-09T19:41:52.074Z,20.35
2023-04-09T19:44:59.443Z,22.58
2023-04-09T19:48:06.125Z,23.67
2023-04-09T19:51:18.166Z,22.67
2023-04-09T19:54:22.297Z,24.08
2023-04-09T19:57:28.349Z,24.13
2023-04-09T20:00:34.054Z,25.48
2023-04-09T20:03:42.929Z,24.15
2023-04-09T20:06:48.022Z,24.80
2023-04-09T20:09:54.269Z,24.17
2023-04-09T20:12:58.798Z,26.35
2023-04-09T20:16:05.159Z,24.98
2023-04-09T20:19:11.192Z,23.88
2023-04-09T20:22:17.839Z,25.60
2023-04-09T20:25:22.321Z,26.30
2023-04-09T20:28:29.098Z,26.42
2023-04-09T20:31:34.437Z,27.42
2023-04-09T20:34:43.067Z,24.88
2023-04-09T20:37:48.677Z,26.10
2023-04-09T20:40:54.992Z,30.50
2023-04-09T20:43:59.214Z,32.03
2023-04-09T20:47:06.640Z,31.20
2023-04-09T20:50:13.565Z,33.53
2023-04-09T20:53:20.100Z,33.60
2023-04-09T20:56:24.106Z,34.90
2023-04-09T20:59:30.120Z,34.33
2023-04-09T21:02:34.579Z,36.17
2023-04-09T21:05:42.846Z,34.00
2023-04-09T21:08:46.828Z,35.85
2023-04-09T21:11:53.126Z,34.00
2023-04-09T21:14:57.297Z,33.13
2023-04-09T21:18:03.319Z,32.85
2023-04-09T21:24:19.701Z,34.10
2023-04-09T21:27:24.196Z,36.00
2023-04-09T21:30:31.696Z,37.25
2023-04-09T21:33:38.437Z,39.63
2023-04-09T21:36:46.776Z,41.28
2023-04-09T21:39:53.148Z,38.50
2023-04-09T21:42:59.272Z,37.35
2023-04-09T21:46:03.904Z,37.35
2023-04-09T21:49:10.044Z,36.95
2023-04-09T21:52:16.670Z,37.97
2023-04-09T21:55:23.014Z,35.70
2023-04-09T21:58:26.950Z,38.45
2023-04-09T22:01:35.086Z,39.70
2023-04-09T22:04:41.877Z,38.35
2023-04-09T22:07:49.871Z,38.13
2023-04-09T22:10:55.071Z,43.25
2023-04-09T22:14:01.143Z,41.83
2023-04-09T22:20:11.373Z,42.95
2023-04-09T22:23:17.238Z,42.08
2023-04-09T22:26:23.421Z,44.80
2023-04-09T22:29:27.476Z,42.15
2023-04-09T22:32:34.684Z,41.47
2023-04-09T22:35:39.048Z,44.22
2023-04-09T22:38:47.325Z,43.40
2023-04-09T22:41:51.618Z,45.38
2023-04-09T22:44:57.786Z,45.42
2023-04-09T22:48:02.044Z,46.90
2023-04-09T22:51:08.444Z,47.10
2023-04-09T22:54:16.300Z,45.72
2023-04-09T22:57:22.266Z,43.47
2023-04-09T23:03:33.817Z,43.25
2023-04-09T23:06:38.145Z,41.90
2023-04-09T23:09:47.067Z,43.65
2023-04-09T23:12:51.146Z,41.95
2023-04-09T23:15:57.243Z,41.47
2023-04-09T23:19:01.438Z,38.55
2023-04-09T23:22:08.070Z,37.20
2023-04-09T23:25:14.376Z,36.22
2023-04-09T23:28:20.434Z,38.75
2023-04-09T23:34:30.409Z,36.15
2023-04-09T23:37:34.564Z,38.65
2023-04-09T23:40:42.509Z,41.15
2023-04-09T23:43:46.804Z,38.22
2023-04-09T23:46:53.333Z,36.30
2023-04-09T23:49:57.592Z,37.58
2023-04-09T23:53:03.959Z,39.05
2023-04-09T23:56:10.908Z,38.85
2023-04-09T23:59:16.966Z,38.95
